sensor_id;sensor_type;location;lat;lon;timestamp;P1;durP1;ratioP1;P2;durP2;ratioP2
56242;SDS011;42155;53.096;23.226;2022-08-03T00:01:07;15.27;;;8.43;;
56242;SDS011;42155;53.096;23.226;2022-08-03T00:03:07;12.57;;;7.80;;
56242;SDS011;42155;53.096;23.226;2022-08-03T00:05:08;13.05;;;7.93;;
56242;SDS011;42155;53.096;23.226;2022-08-03T00:07:08;16.40;;;8.18;;
56242;SDS011;42155;53.096;23.226;2022-08-03T00:09:09;14.85;;;7.95;;
56242;SDS011;42155;53.096;23.226;2022-08-03T00:11:10;13.40;;;7.07;;
56242;SDS011;42155;53.096;23.226;2022-08-03T00:13:11;12.27;;;7.20;;
56242;SDS011;42155;53.096;23.226;2022-08-03T00:15:11;10.30;;;7.05;;
56242;SDS011;42155;53.096;23.226;2022-08-03T00:17:12;16.35;;;7.57;;
56242;SDS011;42155;53.096;23.226;2022-08-03T00:19:12;16.80;;;8.32;;
56242;SDS011;42155;53.096;23.226;2022-08-03T00:21:12;15.38;;;7.70;;
56242;SDS011;42155;53.096;23.226;2022-08-03T00:23:13;13.20;;;7.00;;
56242;SDS011;42155;53.096;23.226;2022-08-03T00:25:13;9.38;;;6.38;;
56242;SDS011;42155;53.096;23.226;2022-08-03T00:27:13;11.15;;;6.10;;
56242;SDS011;42155;53.096;23.226;2022-08-03T00:29:14;7.95;;;5.10;;
56242;SDS011;42155;53.096;23.226;2022-08-03T00:31:14;10.00;;;5.82;;
56242;SDS011;42155;53.096;23.226;2022-08-03T00:33:14;10.38;;;6.15;;
56242;SDS011;42155;53.096;23.226;2022-08-03T00:35:15;12.43;;;6.75;;
56242;SDS011;42155;53.096;23.226;2022-08-03T00:37:15;12.52;;;6.90;;
56242;SDS011;42155;53.096;23.226;2022-08-03T00:39:16;12.25;;;7.68;;
56242;SDS011;42155;53.096;23.226;2022-08-03T00:41:16;18.00;;;8.35;;
56242;SDS011;42155;53.096;23.226;2022-08-03T00:43:17;11.05;;;7.60;;
56242;SDS011;42155;53.096;23.226;2022-08-03T00:45:17;11.68;;;7.38;;
56242;SDS011;42155;53.096;23.226;2022-08-03T00:47:18;9.98;;;5.78;;
56242;SDS011;42155;53.096;23.226;2022-08-03T00:49:18;10.52;;;6.55;;
56242;SDS011;42155;53.096;23.226;2022-08-03T00:51:19;12.02;;;6.75;;
56242;SDS011;42155;53.096;23.226;2022-08-03T00:53:20;14.55;;;7.75;;
56242;SDS011;42155;53.096;23.226;2022-08-03T00:55:21;13.85;;;7.43;;
56242;SDS011;42155;53.096;23.226;2022-08-03T00:57:22;12.23;;;7.75;;
56242;SDS011;42155;53.096;23.226;2022-08-03T00:59:22;13.52;;;8.15;;
56242;SDS011;42155;53.096;23.226;2022-08-03T01:01:22;12.55;;;7.88;;
56242;SDS011;42155;53.096;23.226;2022-08-03T01:03:23;15.90;;;8.43;;
56242;SDS011;42155;53.096;23.226;2022-08-03T01:05:23;13.05;;;8.05;;
56242;SDS011;42155;53.096;23.226;2022-08-03T01:12:23;14.95;;;9.07;;
56242;SDS011;42155;53.096;23.226;2022-08-03T01:14:32;9.32;;;6.15;;
56242;SDS011;42155;53.096;23.226;2022-08-03T01:16:42;13.10;;;6.93;;
56242;SDS011;42155;53.096;23.226;2022-08-03T01:21:31;20.73;;;8.85;;
56242;SDS011;42155;53.096;23.226;2022-08-03T01:23:45;14.15;;;7.95;;
56242;SDS011;42155;53.096;23.226;2022-08-03T01:25:58;13.57;;;7.75;;
56242;SDS011;42155;53.096;23.226;2022-08-03T01:30:46;13.98;;;7.93;;
56242;SDS011;42155;53.096;23.226;2022-08-03T01:32:53;12.48;;;7.03;;
56242;SDS011;42155;53.096;23.226;2022-08-03T01:35:01;13.57;;;7.93;;
56242;SDS011;42155;53.096;23.226;2022-08-03T01:37:05;12.95;;;7.70;;
56242;SDS011;42155;53.096;23.226;2022-08-03T01:39:08;11.82;;;7.15;;
56242;SDS011;42155;53.096;23.226;2022-08-03T01:41:10;15.30;;;7.60;;
56242;SDS011;42155;53.096;23.226;2022-08-03T01:43:14;15.50;;;7.10;;
56242;SDS011;42155;53.096;23.226;2022-08-03T01:45:16;10.93;;;6.97;;
56242;SDS011;42155;53.096;23.226;2022-08-03T01:47:18;14.85;;;8.18;;
56242;SDS011;42155;53.096;23.226;2022-08-03T01:49:20;12.90;;;7.30;;
56242;SDS011;42155;53.096;23.226;2022-08-03T01:51:21;10.90;;;6.90;;
56242;SDS011;42155;53.096;23.226;2022-08-03T01:53:21;12.48;;;6.85;;
56242;SDS011;42155;53.096;23.226;2022-08-03T01:55:23;12.25;;;6.53;;
56242;SDS011;42155;53.096;23.226;2022-08-03T01:57:25;12.15;;;6.70;;
56242;SDS011;42155;53.096;23.226;2022-08-03T01:59:28;12.45;;;7.13;;
56242;SDS011;42155;53.096;23.226;2022-08-03T02:01:31;11.27;;;7.13;;
56242;SDS011;42155;53.096;23.226;2022-08-03T02:03:35;11.05;;;6.95;;
56242;SDS011;42155;53.096;23.226;2022-08-03T02:05:38;15.05;;;7.25;;
56242;SDS011;42155;53.096;23.226;2022-08-03T02:07:39;12.23;;;7.45;;
56242;SDS011;42155;53.096;23.226;2022-08-03T02:09:43;9.38;;;5.70;;
56242;SDS011;42155;53.096;23.226;2022-08-03T02:11:46;9.40;;;6.07;;
56242;SDS011;42155;53.096;23.226;2022-08-03T02:13:47;9.52;;;6.75;;
56242;SDS011;42155;53.096;23.226;2022-08-03T02:15:50;13.60;;;7.30;;
56242;SDS011;42155;53.096;23.226;2022-08-03T02:17:52;11.80;;;6.85;;
56242;SDS011;42155;53.096;23.226;2022-08-03T02:19:55;12.05;;;6.22;;
56242;SDS011;42155;53.096;23.226;2022-08-03T02:21:58;10.82;;;6.80;;
56242;SDS011;42155;53.096;23.226;2022-08-03T02:23:59;15.32;;;6.38;;
56242;SDS011;42155;53.096;23.226;2022-08-03T02:26:01;9.63;;;6.32;;
56242;SDS011;42155;53.096;23.226;2022-08-03T02:28:05;10.32;;;6.45;;
56242;SDS011;42155;53.096;23.226;2022-08-03T02:30:12;11.45;;;6.45;;
56242;SDS011;42155;53.096;23.226;2022-08-03T02:32:13;10.70;;;6.35;;
56242;SDS011;42155;53.096;23.226;2022-08-03T02:34:16;10.32;;;5.72;;
56242;SDS011;42155;53.096;23.226;2022-08-03T02:36:21;8.02;;;5.95;;
56242;SDS011;42155;53.096;23.226;2022-08-03T02:38:25;9.25;;;5.80;;
56242;SDS011;42155;53.096;23.226;2022-08-03T02:40:32;8.43;;;5.65;;
56242;SDS011;42155;53.096;23.226;2022-08-03T02:42:32;7.75;;;5.78;;
56242;SDS011;42155;53.096;23.226;2022-08-03T02:44:34;8.98;;;5.90;;
56242;SDS011;42155;53.096;23.226;2022-08-03T02:46:37;9.02;;;5.28;;
56242;SDS011;42155;53.096;23.226;2022-08-03T02:48:40;8.90;;;4.97;;
56242;SDS011;42155;53.096;23.226;2022-08-03T02:50:43;17.75;;;5.53;;
56242;SDS011;42155;53.096;23.226;2022-08-03T02:52:44;7.60;;;5.10;;
56242;SDS011;42155;53.096;23.226;2022-08-03T02:54:47;7.07;;;4.70;;
56242;SDS011;42155;53.096;23.226;2022-08-03T02:56:49;7.15;;;4.95;;
56242;SDS011;42155;53.096;23.226;2022-08-03T02:58:53;6.72;;;4.65;;
56242;SDS011;42155;53.096;23.226;2022-08-03T03:00:55;7.50;;;4.38;;
56242;SDS011;42155;53.096;23.226;2022-08-03T03:02:57;6.97;;;4.38;;
56242;SDS011;42155;53.096;23.226;2022-08-03T03:04:59;6.00;;;3.97;;
56242;SDS011;42155;53.096;23.226;2022-08-03T03:07:00;5.55;;;4.18;;
56242;SDS011;42155;53.096;23.226;2022-08-03T03:09:01;12.15;;;5.05;;
56242;SDS011;42155;53.096;23.226;2022-08-03T03:11:02;7.57;;;4.00;;
56242;SDS011;42155;53.096;23.226;2022-08-03T03:13:03;6.47;;;4.43;;
56242;SDS011;42155;53.096;23.226;2022-08-03T03:15:05;7.35;;;4.75;;
56242;SDS011;42155;53.096;23.226;2022-08-03T03:17:06;7.05;;;4.50;;
56242;SDS011;42155;53.096;23.226;2022-08-03T03:19:09;15.65;;;4.72;;
56242;SDS011;42155;53.096;23.226;2022-08-03T03:21:12;7.15;;;4.60;;
56242;SDS011;42155;53.096;23.226;2022-08-03T03:25:23;6.60;;;4.65;;
56242;SDS011;42155;53.096;23.226;2022-08-03T03:27:24;7.18;;;4.75;;
56242;SDS011;42155;53.096;23.226;2022-08-03T03:29:25;7.13;;;4.47;;
56242;SDS011;42155;53.096;23.226;2022-08-03T03:31:26;9.77;;;4.13;;
56242;SDS011;42155;53.096;23.226;2022-08-03T03:33:26;5.65;;;3.55;;
56242;SDS011;42155;53.096;23.226;2022-08-03T03:35:27;6.13;;;4.13;;
56242;SDS011;42155;53.096;23.226;2022-08-03T03:37:28;7.07;;;4.60;;
56242;SDS011;42155;53.096;23.226;2022-08-03T03:39:28;6.10;;;4.30;;
56242;SDS011;42155;53.096;23.226;2022-08-03T03:41:28;7.07;;;4.35;;
56242;SDS011;42155;53.096;23.226;2022-08-03T03:43:29;5.90;;;3.92;;
56242;SDS011;42155;53.096;23.226;2022-08-03T03:45:29;7.53;;;4.63;;
56242;SDS011;42155;53.096;23.226;2022-08-03T03:47:30;7.93;;;4.30;;
56242;SDS011;42155;53.096;23.226;2022-08-03T03:49:32;9.32;;;4.10;;
56242;SDS011;42155;53.096;23.226;2022-08-03T03:51:33;8.10;;;4.28;;
56242;SDS011;42155;53.096;23.226;2022-08-03T03:53:33;6.93;;;4.68;;
56242;SDS011;42155;53.096;23.226;2022-08-03T03:55:33;5.25;;;3.90;;
56242;SDS011;42155;53.096;23.226;2022-08-03T03:57:34;7.18;;;3.92;;
56242;SDS011;42155;53.096;23.226;2022-08-03T03:59:37;6.53;;;3.92;;
56242;SDS011;42155;53.096;23.226;2022-08-03T04:01:38;4.88;;;3.63;;
56242;SDS011;42155;53.096;23.226;2022-08-03T04:03:38;4.03;;;2.83;;
56242;SDS011;42155;53.096;23.226;2022-08-03T04:05:39;4.15;;;2.90;;
56242;SDS011;42155;53.096;23.226;2022-08-03T04:07:53;4.75;;;3.10;;
56242;SDS011;42155;53.096;23.226;2022-08-03T04:09:57;5.90;;;3.45;;
56242;SDS011;42155;53.096;23.226;2022-08-03T04:11:58;6.22;;;3.30;;
56242;SDS011;42155;53.096;23.226;2022-08-03T04:16:06;4.72;;;3.05;;
56242;SDS011;42155;53.096;23.226;2022-08-03T04:18:10;5.43;;;3.30;;
56242;SDS011;42155;53.096;23.226;2022-08-03T04:20:12;4.60;;;2.92;;
56242;SDS011;42155;53.096;23.226;2022-08-03T04:22:16;5.70;;;3.17;;
56242;SDS011;42155;53.096;23.226;2022-08-03T04:24:18;5.90;;;2.83;;
56242;SDS011;42155;53.096;23.226;2022-08-03T04:26:20;13.13;;;3.35;;
56242;SDS011;42155;53.096;23.226;2022-08-03T04:28:23;5.95;;;3.20;;
56242;SDS011;42155;53.096;23.226;2022-08-03T04:30:25;4.13;;;2.60;;
56242;SDS011;42155;53.096;23.226;2022-08-03T04:32:27;7.25;;;3.00;;
56242;SDS011;42155;53.096;23.226;2022-08-03T04:34:29;4.25;;;2.83;;
56242;SDS011;42155;53.096;23.226;2022-08-03T04:36:31;4.68;;;2.80;;
56242;SDS011;42155;53.096;23.226;2022-08-03T04:38:36;4.28;;;2.80;;
56242;SDS011;42155;53.096;23.226;2022-08-03T04:40:40;4.50;;;3.08;;
56242;SDS011;42155;53.096;23.226;2022-08-03T04:42:42;5.72;;;2.80;;
56242;SDS011;42155;53.096;23.226;2022-08-03T04:44:44;6.53;;;3.00;;
56242;SDS011;42155;53.096;23.226;2022-08-03T04:46:45;6.70;;;3.20;;
56242;SDS011;42155;53.096;23.226;2022-08-03T04:48:46;5.75;;;3.13;;
56242;SDS011;42155;53.096;23.226;2022-08-03T04:50:47;6.63;;;3.28;;
56242;SDS011;42155;53.096;23.226;2022-08-03T04:52:48;4.93;;;3.30;;
56242;SDS011;42155;53.096;23.226;2022-08-03T04:54:48;9.43;;;3.70;;
56242;SDS011;42155;53.096;23.226;2022-08-03T04:56:49;6.05;;;3.83;;
56242;SDS011;42155;53.096;23.226;2022-08-03T04:58:49;11.40;;;3.50;;
56242;SDS011;42155;53.096;23.226;2022-08-03T05:00:49;7.68;;;4.10;;
56242;SDS011;42155;53.096;23.226;2022-08-03T05:02:50;6.45;;;3.78;;
56242;SDS011;42155;53.096;23.226;2022-08-03T05:04:50;12.38;;;4.05;;
56242;SDS011;42155;53.096;23.226;2022-08-03T05:06:50;7.50;;;3.60;;
56242;SDS011;42155;53.096;23.226;2022-08-03T05:08:51;6.38;;;3.60;;
56242;SDS011;42155;53.096;23.226;2022-08-03T05:10:51;6.43;;;3.70;;
56242;SDS011;42155;53.096;23.226;2022-08-03T05:12:51;6.05;;;3.75;;
56242;SDS011;42155;53.096;23.226;2022-08-03T05:14:52;8.05;;;3.65;;
56242;SDS011;42155;53.096;23.226;2022-08-03T05:16:52;8.18;;;3.58;;
56242;SDS011;42155;53.096;23.226;2022-08-03T05:18:52;8.50;;;3.95;;
56242;SDS011;42155;53.096;23.226;2022-08-03T05:20:53;5.07;;;3.50;;
56242;SDS011;42155;53.096;23.226;2022-08-03T05:22:53;4.45;;;2.90;;
56242;SDS011;42155;53.096;23.226;2022-08-03T05:24:53;6.78;;;3.10;;
56242;SDS011;42155;53.096;23.226;2022-08-03T05:26:54;4.68;;;2.88;;
56242;SDS011;42155;53.096;23.226;2022-08-03T05:28:54;3.95;;;2.78;;
56242;SDS011;42155;53.096;23.226;2022-08-03T05:30:54;5.07;;;2.97;;
56242;SDS011;42155;53.096;23.226;2022-08-03T05:32:55;3.42;;;2.75;;
56242;SDS011;42155;53.096;23.226;2022-08-03T05:34:55;4.53;;;2.42;;
56242;SDS011;42155;53.096;23.226;2022-08-03T05:36:55;4.30;;;2.85;;
56242;SDS011;42155;53.096;23.226;2022-08-03T05:38:56;4.45;;;2.70;;
56242;SDS011;42155;53.096;23.226;2022-08-03T05:40:56;4.32;;;2.80;;
56242;SDS011;42155;53.096;23.226;2022-08-03T05:42:57;4.18;;;2.70;;
56242;SDS011;42155;53.096;23.226;2022-08-03T05:44:58;5.32;;;2.70;;
56242;SDS011;42155;53.096;23.226;2022-08-03T05:46:58;3.95;;;2.60;;
56242;SDS011;42155;53.096;23.226;2022-08-03T05:48:58;3.97;;;2.35;;
56242;SDS011;42155;53.096;23.226;2022-08-03T05:50:59;4.28;;;2.70;;
56242;SDS011;42155;53.096;23.226;2022-08-03T05:52:59;4.28;;;2.90;;
56242;SDS011;42155;53.096;23.226;2022-08-03T05:54:59;4.70;;;2.75;;
56242;SDS011;42155;53.096;23.226;2022-08-03T05:57:00;6.75;;;2.70;;
56242;SDS011;42155;53.096;23.226;2022-08-03T05:59:00;4.88;;;2.40;;
56242;SDS011;42155;53.096;23.226;2022-08-03T06:01:00;4.07;;;2.33;;
56242;SDS011;42155;53.096;23.226;2022-08-03T06:03:01;5.90;;;2.85;;
56242;SDS011;42155;53.096;23.226;2022-08-03T06:05:01;3.80;;;2.70;;
56242;SDS011;42155;53.096;23.226;2022-08-03T06:07:02;7.35;;;2.85;;
56242;SDS011;42155;53.096;23.226;2022-08-03T06:09:02;6.20;;;2.40;;
56242;SDS011;42155;53.096;23.226;2022-08-03T06:11:03;5.70;;;1.67;;
56242;SDS011;42155;53.096;23.226;2022-08-03T06:13:03;4.00;;;1.90;;
56242;SDS011;42155;53.096;23.226;2022-08-03T06:15:03;5.28;;;1.77;;
56242;SDS011;42155;53.096;23.226;2022-08-03T06:17:04;4.70;;;1.85;;
56242;SDS011;42155;53.096;23.226;2022-08-03T06:19:04;5.15;;;1.95;;
56242;SDS011;42155;53.096;23.226;2022-08-03T06:21:06;2.30;;;1.60;;
56242;SDS011;42155;53.096;23.226;2022-08-03T06:23:07;2.67;;;1.60;;
56242;SDS011;42155;53.096;23.226;2022-08-03T06:25:07;3.47;;;1.40;;
56242;SDS011;42155;53.096;23.226;2022-08-03T06:27:08;6.30;;;1.80;;
56242;SDS011;42155;53.096;23.226;2022-08-03T06:29:08;3.75;;;1.50;;
56242;SDS011;42155;53.096;23.226;2022-08-03T06:31:08;3.85;;;1.60;;
56242;SDS011;42155;53.096;23.226;2022-08-03T06:33:09;4.97;;;1.70;;
56242;SDS011;42155;53.096;23.226;2022-08-03T06:35:09;4.18;;;1.60;;
56242;SDS011;42155;53.096;23.226;2022-08-03T06:37:09;6.03;;;1.77;;
56242;SDS011;42155;53.096;23.226;2022-08-03T06:39:10;2.97;;;1.45;;
56242;SDS011;42155;53.096;23.226;2022-08-03T06:41:10;7.20;;;2.08;;
56242;SDS011;42155;53.096;23.226;2022-08-03T06:43:10;3.85;;;1.70;;
56242;SDS011;42155;53.096;23.226;2022-08-03T06:45:11;3.15;;;1.60;;
56242;SDS011;42155;53.096;23.226;2022-08-03T06:47:11;3.15;;;1.83;;
56242;SDS011;42155;53.096;23.226;2022-08-03T06:49:12;6.57;;;1.77;;
56242;SDS011;42155;53.096;23.226;2022-08-03T06:51:12;7.35;;;1.70;;
56242;SDS011;42155;53.096;23.226;2022-08-03T06:53:13;4.22;;;1.55;;
56242;SDS011;42155;53.096;23.226;2022-08-03T06:55:13;7.03;;;1.60;;
56242;SDS011;42155;53.096;23.226;2022-08-03T06:57:13;4.65;;;1.83;;
56242;SDS011;42155;53.096;23.226;2022-08-03T06:59:14;4.10;;;1.50;;
56242;SDS011;42155;53.096;23.226;2022-08-03T07:01:14;5.20;;;1.50;;
56242;SDS011;42155;53.096;23.226;2022-08-03T07:03:15;1.73;;;1.25;;
56242;SDS011;42155;53.096;23.226;2022-08-03T07:05:15;4.95;;;1.60;;
56242;SDS011;42155;53.096;23.226;2022-08-03T07:07:16;3.83;;;1.60;;
56242;SDS011;42155;53.096;23.226;2022-08-03T07:09:17;2.78;;;1.33;;
56242;SDS011;42155;53.096;23.226;2022-08-03T07:11:17;3.38;;;1.60;;
56242;SDS011;42155;53.096;23.226;2022-08-03T07:13:17;2.83;;;1.48;;
56242;SDS011;42155;53.096;23.226;2022-08-03T07:15:18;7.63;;;1.63;;
56242;SDS011;42155;53.096;23.226;2022-08-03T07:17:18;4.40;;;1.27;;
56242;SDS011;42155;53.096;23.226;2022-08-03T07:19:18;4.53;;;1.42;;
56242;SDS011;42155;53.096;23.226;2022-08-03T07:21:19;3.50;;;1.30;;
56242;SDS011;42155;53.096;23.226;2022-08-03T07:23:19;2.97;;;1.75;;
56242;SDS011;42155;53.096;23.226;2022-08-03T07:25:19;3.45;;;1.30;;
56242;SDS011;42155;53.096;23.226;2022-08-03T07:27:20;2.72;;;1.40;;
56242;SDS011;42155;53.096;23.226;2022-08-03T07:29:20;3.00;;;1.40;;
56242;SDS011;42155;53.096;23.226;2022-08-03T07:31:21;3.83;;;1.50;;
56242;SDS011;42155;53.096;23.226;2022-08-03T07:33:21;3.97;;;1.70;;
56242;SDS011;42155;53.096;23.226;2022-08-03T07:35:21;2.78;;;1.20;;
56242;SDS011;42155;53.096;23.226;2022-08-03T07:37:22;4.43;;;1.60;;
56242;SDS011;42155;53.096;23.226;2022-08-03T07:39:22;4.28;;;1.60;;
56242;SDS011;42155;53.096;23.226;2022-08-03T07:41:23;3.33;;;1.50;;
56242;SDS011;42155;53.096;23.226;2022-08-03T07:43:23;2.75;;;1.45;;
56242;SDS011;42155;53.096;23.226;2022-08-03T07:45:23;4.47;;;1.50;;
56242;SDS011;42155;53.096;23.226;2022-08-03T07:47:25;3.60;;;1.58;;
56242;SDS011;42155;53.096;23.226;2022-08-03T07:49:26;2.08;;;1.50;;
56242;SDS011;42155;53.096;23.226;2022-08-03T07:51:27;4.97;;;1.75;;
56242;SDS011;42155;53.096;23.226;2022-08-03T07:53:27;3.75;;;1.58;;
56242;SDS011;42155;53.096;23.226;2022-08-03T07:55:27;3.20;;;1.45;;
56242;SDS011;42155;53.096;23.226;2022-08-03T07:57:28;3.45;;;1.50;;
56242;SDS011;42155;53.096;23.226;2022-08-03T07:59:28;5.57;;;1.65;;
56242;SDS011;42155;53.096;23.226;2022-08-03T08:01:28;2.03;;;1.40;;
56242;SDS011;42155;53.096;23.226;2022-08-03T08:03:29;2.95;;;1.42;;
56242;SDS011;42155;53.096;23.226;2022-08-03T08:05:29;2.15;;;1.40;;
56242;SDS011;42155;53.096;23.226;2022-08-03T08:07:30;4.22;;;1.60;;
56242;SDS011;42155;53.096;23.226;2022-08-03T08:09:30;3.08;;;2.25;;
56242;SDS011;42155;53.096;23.226;2022-08-03T08:11:31;2.70;;;1.30;;
56242;SDS011;42155;53.096;23.226;2022-08-03T08:13:31;2.28;;;1.48;;
56242;SDS011;42155;53.096;23.226;2022-08-03T08:15:32;2.58;;;1.48;;
56242;SDS011;42155;53.096;23.226;2022-08-03T08:17:42;5.30;;;1.40;;
56242;SDS011;42155;53.096;23.226;2022-08-03T08:19:47;2.88;;;1.60;;
56242;SDS011;42155;53.096;23.226;2022-08-03T08:21:48;3.22;;;1.60;;
56242;SDS011;42155;53.096;23.226;2022-08-03T08:23:48;2.20;;;1.58;;
56242;SDS011;42155;53.096;23.226;2022-08-03T08:25:49;5.25;;;1.92;;
56242;SDS011;42155;53.096;23.226;2022-08-03T08:27:50;3.53;;;1.70;;
56242;SDS011;42155;53.096;23.226;2022-08-03T08:29:51;3.75;;;1.58;;
56242;SDS011;42155;53.096;23.226;2022-08-03T08:31:51;6.32;;;1.67;;
56242;SDS011;42155;53.096;23.226;2022-08-03T08:33:51;5.20;;;2.00;;
56242;SDS011;42155;53.096;23.226;2022-08-03T08:35:52;4.45;;;1.70;;
56242;SDS011;42155;53.096;23.226;2022-08-03T08:37:52;4.03;;;2.03;;
56242;SDS011;42155;53.096;23.226;2022-08-03T08:39:54;3.38;;;1.60;;
56242;SDS011;42155;53.096;23.226;2022-08-03T08:41:55;4.70;;;1.70;;
56242;SDS011;42155;53.096;23.226;2022-08-03T08:43:55;7.72;;;1.73;;
56242;SDS011;42155;53.096;23.226;2022-08-03T08:45:55;7.07;;;2.00;;
56242;SDS011;42155;53.096;23.226;2022-08-03T08:47:57;4.72;;;1.83;;
56242;SDS011;42155;53.096;23.226;2022-08-03T08:50:01;3.25;;;1.80;;
56242;SDS011;42155;53.096;23.226;2022-08-03T08:52:02;6.93;;;1.55;;
56242;SDS011;42155;53.096;23.226;2022-08-03T08:54:05;3.30;;;1.88;;
56242;SDS011;42155;53.096;23.226;2022-08-03T08:56:06;3.28;;;1.60;;
56242;SDS011;42155;53.096;23.226;2022-08-03T08:58:09;3.60;;;1.70;;
56242;SDS011;42155;53.096;23.226;2022-08-03T09:00:10;4.20;;;1.95;;
56242;SDS011;42155;53.096;23.226;2022-08-03T09:02:11;3.08;;;1.77;;
56242;SDS011;42155;53.096;23.226;2022-08-03T09:04:11;5.80;;;1.80;;
56242;SDS011;42155;53.096;23.226;2022-08-03T09:06:12;3.83;;;1.63;;
56242;SDS011;42155;53.096;23.226;2022-08-03T09:08:12;2.47;;;1.58;;
56242;SDS011;42155;53.096;23.226;2022-08-03T09:10:14;1.90;;;1.40;;
56242;SDS011;42155;53.096;23.226;2022-08-03T09:12:16;2.97;;;1.60;;
56242;SDS011;42155;53.096;23.226;2022-08-03T09:14:18;15.27;;;1.83;;
56242;SDS011;42155;53.096;23.226;2022-08-03T09:16:20;3.78;;;1.40;;
56242;SDS011;42155;53.096;23.226;2022-08-03T09:18:28;10.52;;;2.17;;
56242;SDS011;42155;53.096;23.226;2022-08-03T09:20:30;3.13;;;1.40;;
56242;SDS011;42155;53.096;23.226;2022-08-03T09:22:33;4.63;;;1.70;;
56242;SDS011;42155;53.096;23.226;2022-08-03T09:24:33;6.30;;;1.60;;
56242;SDS011;42155;53.096;23.226;2022-08-03T09:26:35;3.70;;;1.70;;
56242;SDS011;42155;53.096;23.226;2022-08-03T09:28:36;5.50;;;1.60;;
56242;SDS011;42155;53.096;23.226;2022-08-03T09:30:39;3.13;;;1.55;;
56242;SDS011;42155;53.096;23.226;2022-08-03T09:32:41;2.90;;;1.50;;
56242;SDS011;42155;53.096;23.226;2022-08-03T09:34:42;4.03;;;1.70;;
56242;SDS011;42155;53.096;23.226;2022-08-03T09:36:51;3.13;;;1.73;;
56242;SDS011;42155;53.096;23.226;2022-08-03T09:39:10;3.63;;;1.70;;
56242;SDS011;42155;53.096;23.226;2022-08-03T09:41:18;3.92;;;1.60;;
56242;SDS011;42155;53.096;23.226;2022-08-03T09:43:19;2.10;;;1.50;;
56242;SDS011;42155;53.096;23.226;2022-08-03T09:45:25;3.25;;;1.73;;
56242;SDS011;42155;53.096;23.226;2022-08-03T09:47:35;3.17;;;1.50;;
56242;SDS011;42155;53.096;23.226;2022-08-03T09:49:35;4.95;;;1.88;;
56242;SDS011;42155;53.096;23.226;2022-08-03T09:51:37;8.15;;;1.60;;
56242;SDS011;42155;53.096;23.226;2022-08-03T09:53:42;5.82;;;1.60;;
56242;SDS011;42155;53.096;23.226;2022-08-03T09:55:53;3.85;;;1.40;;
56242;SDS011;42155;53.096;23.226;2022-08-03T09:58:03;7.78;;;2.10;;
56242;SDS011;42155;53.096;23.226;2022-08-03T10:00:09;2.10;;;1.45;;
56242;SDS011;42155;53.096;23.226;2022-08-03T10:02:24;4.97;;;1.80;;
56242;SDS011;42155;53.096;23.226;2022-08-03T10:04:25;4.80;;;1.63;;
56242;SDS011;42155;53.096;23.226;2022-08-03T10:06:26;5.20;;;2.03;;
56242;SDS011;42155;53.096;23.226;2022-08-03T10:08:26;4.88;;;1.92;;
56242;SDS011;42155;53.096;23.226;2022-08-03T10:10:26;2.15;;;1.50;;
56242;SDS011;42155;53.096;23.226;2022-08-03T10:12:42;3.50;;;1.70;;
56242;SDS011;42155;53.096;23.226;2022-08-03T10:14:43;7.03;;;1.70;;
56242;SDS011;42155;53.096;23.226;2022-08-03T10:16:44;5.18;;;1.75;;
56242;SDS011;42155;53.096;23.226;2022-08-03T10:18:45;8.40;;;1.60;;
56242;SDS011;42155;53.096;23.226;2022-08-03T10:20:48;2.58;;;1.40;;
56242;SDS011;42155;53.096;23.226;2022-08-03T10:22:51;3.13;;;1.40;;
56242;SDS011;42155;53.096;23.226;2022-08-03T10:24:56;2.35;;;1.40;;
56242;SDS011;42155;53.096;23.226;2022-08-03T10:27:00;7.07;;;1.77;;
56242;SDS011;42155;53.096;23.226;2022-08-03T10:29:03;2.85;;;1.52;;
56242;SDS011;42155;53.096;23.226;2022-08-03T10:31:08;3.47;;;1.52;;
56242;SDS011;42155;53.096;23.226;2022-08-03T10:33:27;3.55;;;1.45;;
56242;SDS011;42155;53.096;23.226;2022-08-03T10:35:30;5.20;;;1.60;;
56242;SDS011;42155;53.096;23.226;2022-08-03T10:37:31;2.65;;;1.48;;
56242;SDS011;42155;53.096;23.226;2022-08-03T10:39:40;1.85;;;1.20;;
56242;SDS011;42155;53.096;23.226;2022-08-03T10:41:43;2.67;;;1.45;;
56242;SDS011;42155;53.096;23.226;2022-08-03T10:44:04;3.90;;;1.67;;
56242;SDS011;42155;53.096;23.226;2022-08-03T10:46:08;2.67;;;1.50;;
56242;SDS011;42155;53.096;23.226;2022-08-03T10:48:09;2.70;;;1.42;;
56242;SDS011;42155;53.096;23.226;2022-08-03T10:50:10;5.03;;;1.77;;
56242;SDS011;42155;53.096;23.226;2022-08-03T10:52:11;3.80;;;1.40;;
56242;SDS011;42155;53.096;23.226;2022-08-03T10:56:38;4.40;;;1.60;;
56242;SDS011;42155;53.096;23.226;2022-08-03T11:00:48;4.45;;;1.30;;
56242;SDS011;42155;53.096;23.226;2022-08-03T11:03:22;2.13;;;1.40;;
56242;SDS011;42155;53.096;23.226;2022-08-03T11:05:26;4.05;;;1.50;;
56242;SDS011;42155;53.096;23.226;2022-08-03T11:07:27;4.30;;;1.70;;
56242;SDS011;42155;53.096;23.226;2022-08-03T11:09:27;2.00;;;1.50;;
56242;SDS011;42155;53.096;23.226;2022-08-03T11:11:44;4.13;;;1.60;;
56242;SDS011;42155;53.096;23.226;2022-08-03T11:16:17;2.13;;;1.50;;
56242;SDS011;42155;53.096;23.226;2022-08-03T11:18:19;2.22;;;1.40;;
56242;SDS011;42155;53.096;23.226;2022-08-03T11:20:42;3.53;;;1.60;;
56242;SDS011;42155;53.096;23.226;2022-08-03T11:22:59;2.50;;;1.50;;
56242;SDS011;42155;53.096;23.226;2022-08-03T11:24:59;5.18;;;1.75;;
56242;SDS011;42155;53.096;23.226;2022-08-03T11:27:15;2.72;;;1.50;;
56242;SDS011;42155;53.096;23.226;2022-08-03T11:29:30;5.95;;;1.77;;
56242;SDS011;42155;53.096;23.226;2022-08-03T11:33:30;3.40;;;1.60;;
56242;SDS011;42155;53.096;23.226;2022-08-03T11:35:31;8.68;;;1.83;;
56242;SDS011;42155;53.096;23.226;2022-08-03T11:37:33;2.45;;;1.52;;
56242;SDS011;42155;53.096;23.226;2022-08-03T11:39:47;3.80;;;1.90;;
56242;SDS011;42155;53.096;23.226;2022-08-03T11:41:49;4.30;;;1.60;;
56242;SDS011;42155;53.096;23.226;2022-08-03T11:43:49;5.70;;;2.17;;
56242;SDS011;42155;53.096;23.226;2022-08-03T11:50:02;3.75;;;1.80;;
56242;SDS011;42155;53.096;23.226;2022-08-03T11:52:02;5.25;;;1.95;;
56242;SDS011;42155;53.096;23.226;2022-08-03T11:54:05;7.43;;;2.03;;
56242;SDS011;42155;53.096;23.226;2022-08-03T11:56:06;6.57;;;1.70;;
56242;SDS011;42155;53.096;23.226;2022-08-03T11:58:06;4.00;;;1.50;;
56242;SDS011;42155;53.096;23.226;2022-08-03T12:00:22;4.70;;;1.65;;
56242;SDS011;42155;53.096;23.226;2022-08-03T12:02:24;2.17;;;1.75;;
56242;SDS011;42155;53.096;23.226;2022-08-03T12:04:25;3.22;;;1.70;;
56242;SDS011;42155;53.096;23.226;2022-08-03T12:06:25;5.45;;;1.73;;
56242;SDS011;42155;53.096;23.226;2022-08-03T12:10:26;4.43;;;1.50;;
56242;SDS011;42155;53.096;23.226;2022-08-03T12:12:26;4.15;;;1.92;;
56242;SDS011;42155;53.096;23.226;2022-08-03T12:14:27;2.63;;;1.45;;
56242;SDS011;42155;53.096;23.226;2022-08-03T12:16:27;5.22;;;1.95;;
56242;SDS011;42155;53.096;23.226;2022-08-03T12:18:28;3.85;;;1.70;;
56242;SDS011;42155;53.096;23.226;2022-08-03T12:20:29;2.38;;;1.35;;
56242;SDS011;42155;53.096;23.226;2022-08-03T12:22:34;3.90;;;1.70;;
56242;SDS011;42155;53.096;23.226;2022-08-03T12:24:40;4.55;;;1.55;;
56242;SDS011;42155;53.096;23.226;2022-08-03T12:26:48;4.10;;;1.58;;
56242;SDS011;42155;53.096;23.226;2022-08-03T12:28:49;3.65;;;1.50;;
56242;SDS011;42155;53.096;23.226;2022-08-03T12:30:50;5.25;;;1.55;;
56242;SDS011;42155;53.096;23.226;2022-08-03T12:32:51;5.47;;;1.83;;